Time;durP1;ratioP1;P1;durP2;ratioP2;P2;SDS_P1;SDS_P2;PMS_P1;PMS_P2;Temp;Humidity;BMP_temperature;BMP_pressure;BME280_temperature;BME280_humidity;BME280_pressure;Samples;Min_cycle;Max_cycle;Signal;HPM_P1;HPM_P2
2023/01/06 00:02:04;;;;;;;3.1;2.1;;;;;;;7.6;79.47266;944.5545;;;;
2023/01/06 00:04:50;;;;;;;3.7;2.8;;;;;;;7.5;79.64551;944.5356;;;;
2023/01/06 00:07:30;;;;;;;3.6;2.5;;;;;;;7.53;78.99316;944.5008;;;;
2023/01/06 00:09:58;;;;;;;2.1;1.5;;;;;;;7.53;79.21973;944.5041;;;;
2023/01/06 00:12:28;;;;;;;3.5;2.4;;;;;;;7.48;80.10742;944.4924;;;;
2023/01/06 00:15:03;;;;;;;3.6;2.5;;;;;;;7.41;80.55859;944.4417;;;;
2023/01/06 00:17:29;;;;;;;7.1;3.8;;;;;;;7.23;81.19434;944.4374;;;;
2023/01/06 00:19:59;;;;;;;6.6;3.7;;;;;;;7.17;81.68066;944.3917;;;;
2023/01/06 00:22:32;;;;;;;7.2;4;;;;;;;7.2;81.09668;944.3934;;;;
2023/01/06 00:24:59;;;;;;;6.2;3.1;;;;;;;7.04;81.53125;944.3842;;;;
2023/01/06 00:27:29;;;;;;;6.1;3.6;;;;;;;6.99;81.90723;944.3713;;;;
2023/01/06 00:32:41;;;;;;;4.3;2.9;;;;;;;6.94;81.64746;944.3244;;;;
2023/01/06 00:35:11;;;;;;;2.2;1.7;;;;;;;6.95;81.55859;944.3574;;;;
2023/01/06 00:37:46;;;;;;;1.4;1.2;;;;;;;6.81;82.17871;944.3655;;;;
2023/01/06 00:40:19;;;;;;;1.9;1.1;;;;;;;6.88;81.76172;944.3819;;;;
2023/01/06 00:42:46;;;;;;;2.5;1.1;;;;;;;6.96;80.9375;944.3837;;;;
2023/01/06 00:45:13;;;;;;;1.7;1.2;;;;;;;6.84;80.54199;944.3814;;;;
2023/01/06 00:48:06;;;;;;;1.3;1.1;;;;;;;6.6;81.68555;944.3102;;;;
2023/01/06 00:50:34;;;;;;;2.7;1.4;;;;;;;6.52;82.54004;944.2885;;;;
2023/01/06 00:52:59;;;;;;;2.1;1.3;;;;;;;6.59;81.45605;944.199;;;;
2023/01/06 00:55:24;;;;;;;2.3;1.2;;;;;;;6.52;81.7041;944.2648;;;;
2023/01/06 00:57:53;;;;;;;1.6;1.1;;;;;;;6.43;81.96777;944.1863;;;;
2023/01/06 01:00:18;;;;;;;1.8;1.2;;;;;;;6.33;82.20898;944.2808;;;;
2023/01/06 01:02:48;;;;;;;1;0.9;;;;;;;6.1;83.35254;944.1855;;;;
2023/01/06 01:05:19;;;;;;;1;0.8;;;;;;;6.03;84.08398;944.2525;;;;
2023/01/06 01:07:48;;;;;;;1.1;0.9;;;;;;;5.94;84.55176;944.1794;;;;
2023/01/06 01:10:13;;;;;;;1.3;1.1;;;;;;;5.86;84.8877;944.2498;;;;
2023/01/06 01:12:44;;;;;;;1.5;1.3;;;;;;;5.85;85.16699;944.2073;;;;
2023/01/06 01:15:14;;;;;;;1.4;1.3;;;;;;;5.76;85.49902;944.3145;;;;
2023/01/06 01:17:39;;;;;;;2;1.5;;;;;;;5.7;85.71387;944.3052;;;;
2023/01/06 01:20:04;;;;;;;3.5;1.7;;;;;;;5.68;85.75391;944.343;;;;
2023/01/06 01:22:32;;;;;;;1.3;1.1;;;;;;;5.66;85.87598;944.2999;;;;
2023/01/06 01:24:59;;;;;;;0.8;0.8;;;;;;;5.66;85.85156;944.2673;;;;
2023/01/06 01:27:24;;;;;;;11.8;10.8;;;;;;;5.58;86.25488;944.3069;;;;
2023/01/06 01:29:49;;;;;;;8.5;7.8;;;;;;;5.55;86.56348;944.2439;;;;
2023/01/06 01:32:15;;;;;;;3.6;3.1;;;;;;;5.7;85.67969;944.1275;;;;
2023/01/06 01:34:40;;;;;;;1.7;1.6;;;;;;;5.78;85.06152;944.0908;;;;
2023/01/06 01:37:09;;;;;;;1.6;1.5;;;;;;;5.77;84.65332;944.0959;;;;
2023/01/06 01:39:34;;;;;;;1.2;1.1;;;;;;;5.82;84.37109;944.0388;;;;
2023/01/06 01:42:00;;;;;;;1.1;1;;;;;;;5.74;84.50195;944.0505;;;;
2023/01/06 01:44:26;;;;;;;1.3;0.9;;;;;;;5.71;84.5752;944.0142;;;;
2023/01/06 01:46:51;;;;;;;1.7;1.2;;;;;;;5.66;84.58691;944.0952;;;;
2023/01/06 01:49:21;;;;;;;2;1;;;;;;;5.65;84.25977;944.0744;;;;
2023/01/06 01:54:35;;;;;;;1.3;0.8;;;;;;;5.49;85.15137;943.9803;;;;
2023/01/06 01:57:14;;;;;;;1.2;0.8;;;;;;;5.4;85.48438;943.991;;;;
2023/01/06 01:59:41;;;;;;;1.2;0.9;;;;;;;5.38;85.72949;943.9871;;;;
2023/01/06 02:02:06;;;;;;;1.3;0.8;;;;;;;5.36;85.83691;943.9705;;;;
2023/01/06 02:07:56;;;;;;;0.8;0.8;;;;;;;5.3;86.52539;944.0211;;;;
2023/01/06 02:10:20;;;;;;;0.8;0.6;;;;;;;5.34;86.29395;943.9316;;;;
2023/01/06 02:12:50;;;;;;;0.7;0.6;;;;;;;5.31;86.09863;943.8334;;;;
2023/01/06 02:15:16;;;;;;;0.6;0.6;;;;;;;5.31;85.91602;943.8515;;;;
2023/01/06 02:17:41;;;;;;;1.6;0.9;;;;;;;5.11;86.70996;943.8586;;;;
2023/01/06 02:20:14;;;;;;;0.7;0.7;;;;;;;5.07;86.96191;943.8445;;;;
2023/01/06 02:22:41;;;;;;;0.7;0.7;;;;;;;5.06;87.02832;943.7313;;;;
2023/01/06 02:25:06;;;;;;;0.8;0.8;;;;;;;5.13;86.68164;943.8175;;;;
2023/01/06 02:27:31;;;;;;;1.5;0.9;;;;;;;5.14;86.52441;943.7942;;;;
2023/01/06 02:29:57;;;;;;;0.8;0.7;;;;;;;5.1;86.50586;943.7974;;;;
2023/01/06 02:32:24;;;;;;;0.7;0.7;;;;;;;5.07;86.66895;943.7567;;;;
2023/01/06 02:34:49;;;;;;;1.5;0.7;;;;;;;5.07;86.5791;943.7687;;;;
2023/01/06 02:37:14;;;;;;;1.3;0.6;;;;;;;5.03;86.34668;943.7586;;;;
2023/01/06 02:39:39;;;;;;;0.7;0.7;;;;;;;5.02;86.28613;943.7674;;;;
2023/01/06 02:42:33;;;;;;;0.9;0.7;;;;;;;4.98;86.25684;943.7308;;;;
2023/01/06 02:44:59;;;;;;;0.7;0.7;;;;;;;4.83;86.75488;943.7314;;;;
2023/01/06 02:47:28;;;;;;;0.6;0.6;;;;;;;4.84;86.99512;943.7232;;;;
2023/01/06 02:49:53;;;;;;;0.9;0.6;;;;;;;4.74;87.28906;943.7133;;;;
2023/01/06 02:52:18;;;;;;;0.8;0.7;;;;;;;4.82;87.125;943.723;;;;
2023/01/06 02:54:43;;;;;;;0.6;0.6;;;;;;;4.8;86.99707;943.6297;;;;
2023/01/06 02:57:08;;;;;;;0.7;0.7;;;;;;;4.89;86.63281;943.551;;;;
2023/01/06 02:59:33;;;;;;;1.2;1.1;;;;;;;4.72;87.18359;943.5925;;;;
2023/01/06 03:01:59;;;;;;;1.8;0.8;;;;;;;4.71;87.22656;943.5715;;;;
2023/01/06 03:04:24;;;;;;;0.7;0.7;;;;;;;4.71;87.10449;943.5616;;;;
2023/01/06 03:06:50;;;;;;;4.8;4.4;;;;;;;4.8;86.5127;943.5144;;;;
2023/01/06 03:09:15;;;;;;;8.7;8;;;;;;;4.86;86.04102;943.537;;;;
2023/01/06 03:11:40;;;;;;;2.5;2.2;;;;;;;4.96;85.51855;943.5343;;;;
2023/01/06 03:14:07;;;;;;;2.6;1.7;;;;;;;5;84.91895;943.5036;;;;
2023/01/06 03:16:32;;;;;;;2.1;1.4;;;;;;;4.93;85.07324;943.4953;;;;
2023/01/06 03:18:58;;;;;;;2.2;1.3;;;;;;;4.98;84.65625;943.5338;;;;
2023/01/06 03:21:26;;;;;;;1.5;1.1;;;;;;;4.89;84.85254;943.5034;;;;
2023/01/06 03:23:52;;;;;;;0.8;0.8;;;;;;;4.75;85.30957;943.5078;;;;
2023/01/06 03:26:17;;;;;;;1.1;0.9;;;;;;;4.68;85.64453;943.4422;;;;
2023/01/06 03:28:47;;;;;;;1.3;1.1;;;;;;;4.73;85.46191;943.4525;;;;
2023/01/06 03:31:16;;;;;;;1.6;1.1;;;;;;;4.54;86.06738;943.4023;;;;
2023/01/06 03:33:42;;;;;;;2;1.1;;;;;;;4.47;86.73828;943.3274;;;;
2023/01/06 03:36:24;;;;;;;1.4;0.9;;;;;;;4.41;87.04199;943.2992;;;;
2023/01/06 03:38:49;;;;;;;1.6;1.1;;;;;;;4.4;87.18457;943.2583;;;;
2023/01/06 03:41:14;;;;;;;1.3;1;;;;;;;4.41;87.40234;943.3259;;;;
2023/01/06 03:43:44;;;;;;;1.9;1.2;;;;;;;4.4;87.38867;943.3061;;;;
2023/01/06 03:46:12;;;;;;;1.2;0.8;;;;;;;4.31;87.87695;943.2894;;;;
2023/01/06 03:48:42;;;;;;;1.3;0.9;;;;;;;4.43;87.49609;943.3521;;;;
2023/01/06 03:51:10;;;;;;;1;0.8;;;;;;;4.38;87.30664;943.3403;;;;
2023/01/06 03:53:36;;;;;;;1.7;0.9;;;;;;;4.37;87.13379;943.298;;;;
2023/01/06 03:56:01;;;;;;;1.9;1.3;;;;;;;4.27;87.75684;943.2966;;;;
2023/01/06 03:58:27;;;;;;;2.5;1.2;;;;;;;4.3;87.91797;943.2557;;;;
2023/01/06 04:02:38;;;;;;;1.8;1.5;;;;;;;4.24;87.85059;943.356;;;;
2023/01/06 04:05:04;;;;;;;2.1;1.3;;;;;;;4.27;87.5752;943.3428;;;;
2023/01/06 04:07:29;;;;;;;1.5;1.1;;;;;;;4.26;87.39355;943.3502;;;;
2023/01/06 04:09:57;;;;;;;2.3;1;;;;;;;4.23;87.45508;943.301;;;;
2023/01/06 04:12:40;;;;;;;2.1;1.3;;;;;;;4.27;87.2041;943.3215;;;;
2023/01/06 04:14:49;;;;;;;0.8;0.8;;;;;;;4.18;87.26367;943.3348;;;;
2023/01/06 04:25:28;;;;;;;0.6;0.6;;;;;;;4.1;88.41699;943.3347;;;;
2023/01/06 04:27:54;;;;;;;0.8;0.8;;;;;;;4.05;88.3291;943.2908;;;;
2023/01/06 04:30:23;;;;;;;0.7;0.7;;;;;;;4.12;87.52148;943.2954;;;;
2023/01/06 04:32:48;;;;;;;2;1.9;;;;;;;4.06;87.15039;943.3467;;;;
2023/01/06 04:35:14;;;;;;;1.8;1;;;;;;;3.89;88.0498;943.2958;;;;
2023/01/06 04:37:45;;;;;;;0.8;0.8;;;;;;;3.76;88.9209;943.4189;;;;
2023/01/06 04:40:21;;;;;;;1.1;1;;;;;;;3.77;88.73145;943.3692;;;;
2023/01/06 04:43:12;;;;;;;1.1;0.8;;;;;;;3.79;88.7041;943.4434;;;;
2023/01/06 04:45:19;;;;;;;1;0.9;;;;;;;3.77;88.70898;943.4455;;;;
2023/01/06 04:47:45;;;;;;;0.9;0.9;;;;;;;3.83;88.40625;943.4813;;;;
2023/01/06 04:50:17;;;;;;;1.6;0.9;;;;;;;3.74;88.33301;943.4766;;;;
2023/01/06 04:52:42;;;;;;;1;0.9;;;;;;;3.64;88.88477;943.4944;;;;
2023/01/06 04:58:44;;;;;;;1.2;0.8;;;;;;;3.64;89.32129;943.4879;;;;
2023/01/06 05:01:10;;;;;;;1.9;0.9;;;;;;;3.65;88.8418;943.5034;;;;
2023/01/06 05:03:35;;;;;;;0.8;0.6;;;;;;;3.61;88.90039;943.496;;;;
2023/01/06 05:06:00;;;;;;;0.9;0.8;;;;;;;3.49;89.19043;943.4324;;;;
2023/01/06 05:08:28;;;;;;;1.1;0.8;;;;;;;3.55;88.83301;943.4955;;;;
2023/01/06 05:11:17;;;;;;;1.7;1.3;;;;;;;3.49;89.62988;943.5136;;;;
2023/01/06 05:13:42;;;;;;;1.6;1.2;;;;;;;3.39;90.44922;943.5173;;;;
2023/01/06 05:16:12;;;;;;;2.1;1.7;;;;;;;3.49;89.99902;943.5101;;;;
2023/01/06 05:18:38;;;;;;;2.2;2;;;;;;;3.51;89.45215;943.4959;;;;
2023/01/06 05:21:05;;;;;;;6.3;3;;;;;;;3.31;90.30664;943.5332;;;;
2023/01/06 05:23:30;;;;;;;7.2;4.3;;;;;;;3.3;90.78906;943.441;;;;
2023/01/06 05:25:56;;;;;;;4.9;3.2;;;;;;;3.43;90.37891;943.435;;;;
2023/01/06 05:28:24;;;;;;;2.9;1.9;;;;;;;3.39;90.46094;943.345;;;;
2023/01/06 05:30:49;;;;;;;2.4;2;;;;;;;3.31;90.66602;943.4608;;;;
2023/01/06 05:33:16;;;;;;;2.1;1.8;;;;;;;3.29;90.67383;943.5276;;;;
2023/01/06 05:35:41;;;;;;;7.1;4.6;;;;;;;3.3;90.52051;943.4943;;;;
2023/01/06 05:38:11;;;;;;;9.4;5.6;;;;;;;3.37;90.12012;943.5201;;;;
2023/01/06 05:40:36;;;;;;;7.2;4.8;;;;;;;3.37;90.24316;943.5557;;;;
2023/01/06 05:43:06;;;;;;;6.1;3.8;;;;;;;3.31;90.10645;943.4853;;;;
2023/01/06 05:45:31;;;;;;;4.4;2.9;;;;;;;3.26;90.44531;943.4927;;;;
2023/01/06 05:48:01;;;;;;;1.8;1.3;;;;;;;3.27;90.54785;943.4639;;;;
2023/01/06 05:54:04;;;;;;;2.4;1.7;;;;;;;3.15;91.18359;943.5368;;;;
2023/01/06 05:56:29;;;;;;;2.9;1.7;;;;;;;3.14;91.10254;943.5505;;;;
2023/01/06 05:58:56;;;;;;;3.2;2.2;;;;;;;3.15;90.70215;943.5842;;;;
2023/01/06 06:01:21;;;;;;;4.9;2.8;;;;;;;3.08;90.76563;943.5715;;;;
2023/01/06 06:03:52;;;;;;;4.3;2.7;;;;;;;3.12;90.4707;943.5471;;;;
2023/01/06 06:06:21;;;;;;;4.5;3;;;;;;;3.1;90.32031;943.5715;;;;
2023/01/06 06:08:52;;;;;;;5.3;3.5;;;;;;;3.06;90.28906;943.4849;;;;
2023/01/06 06:11:19;;;;;;;5.1;3.4;;;;;;;2.98;90.60938;943.6037;;;;
2023/01/06 06:13:44;;;;;;;3.6;2.8;;;;;;;2.92;90.7959;943.6139;;;;
2023/01/06 06:16:11;;;;;;;4.5;2.9;;;;;;;2.87;91.4375;943.6794;;;;
2023/01/06 06:18:43;;;;;;;4;3;;;;;;;2.99;91.24023;943.6766;;;;
2023/01/06 06:21:13;;;;;;;7.8;5;;;;;;;3.11;90.49121;943.6451;;;;
2023/01/06 06:27:20;;;;;;;8.6;5;;;;;;;3.06;90.21191;943.7562;;;;
2023/01/06 06:29:49;;;;;;;9.2;5.2;;;;;;;3.09;90.08301;943.7119;;;;
2023/01/06 06:32:18;;;;;;;8.7;5.3;;;;;;;3.06;90.26855;943.6808;;;;
2023/01/06 06:34:43;;;;;;;8.6;5.6;;;;;;;3.01;90.36719;943.7191;;;;
2023/01/06 06:37:10;;;;;;;9.4;5.6;;;;;;;3.02;90.24707;943.6058;;;;
2023/01/06 06:45:32;;;;;;;6.2;4;;;;;;;2.95;90.63574;943.4812;;;;
2023/01/06 06:48:26;;;;;;;4.7;3.6;;;;;;;3.02;90.80859;943.469;;;;
2023/01/06 06:53:16;;;;;;;4.4;3.4;;;;;;;3.04;89.74609;943.4713;;;;
2023/01/06 06:55:46;;;;;;;3;2.7;;;;;;;2.97;89.83203;943.4828;;;;
2023/01/06 06:58:11;;;;;;;2.5;2.3;;;;;;;2.97;90.01367;943.4333;;;;
2023/01/06 07:00:39;;;;;;;2.4;2;;;;;;;2.92;89.91016;943.4913;;;;
2023/01/06 07:03:04;;;;;;;2.1;1.8;;;;;;;2.85;90.38867;943.4164;;;;
2023/01/06 07:05:31;;;;;;;1.5;1.4;;;;;;;2.97;90.83008;943.4189;;;;
2023/01/06 07:07:56;;;;;;;1.6;1.5;;;;;;;3.19;90.59766;943.4185;;;;
2023/01/06 07:10:23;;;;;;;2;1.8;;;;;;;3.24;89.58789;943.4005;;;;
2023/01/06 07:12:48;;;;;;;1.8;1.6;;;;;;;3.31;88.88281;943.4507;;;;
2023/01/06 07:15:16;;;;;;;2.8;2.4;;;;;;;3.33;88.59473;943.4941;;;;
2023/01/06 07:17:42;;;;;;;7.2;5;;;;;;;3.36;88.32129;943.5027;;;;
2023/01/06 07:20:11;;;;;;;6.4;4.7;;;;;;;3.19;88.54395;943.4921;;;;
2023/01/06 07:22:41;;;;;;;7.5;5.3;;;;;;;3.23;88.77637;943.5147;;;;
2023/01/06 07:25:06;;;;;;;9.1;5.8;;;;;;;3.31;88.30078;943.506;;;;
2023/01/06 07:27:33;;;;;;;8.4;6.2;;;;;;;3.3;88.16211;943.533;;;;
2023/01/06 07:29:59;;;;;;;11;6.6;;;;;;;3.36;88.00488;943.5112;;;;
2023/01/06 07:32:27;;;;;;;9.9;7.1;;;;;;;3.41;87.34277;943.4593;;;;
2023/01/06 07:34:53;;;;;;;11.6;7.5;;;;;;;3.37;87.2793;943.3706;;;;
2023/01/06 07:37:18;;;;;;;14.1;8.1;;;;;;;3.3;87.35449;943.4055;;;;
2023/01/06 07:39:47;;;;;;;14.8;9;;;;;;;3.34;87.31836;943.3978;;;;
2023/01/06 07:42:12;;;;;;;10.5;7.9;;;;;;;3.33;87.13477;943.4437;;;;
2023/01/06 07:44:39;;;;;;;14.9;9.4;;;;;;;3.28;86.96875;943.488;;;;
2023/01/06 07:47:05;;;;;;;14.2;9.8;;;;;;;3.25;87.16309;943.4716;;;;
2023/01/06 07:49:31;;;;;;;12.2;9.4;;;;;;;3.19;87.43262;943.5142;;;;
2023/01/06 07:51:56;;;;;;;7.3;5.7;;;;;;;3.12;88.28223;943.4938;;;;
2023/01/06 07:54:23;;;;;;;6.8;4.9;;;;;;;3.31;88.91602;943.49;;;;
2023/01/06 07:56:49;;;;;;;5.5;4.5;;;;;;;3.31;88.46582;943.4183;;;;
2023/01/06 07:59:16;;;;;;;5.1;3.6;;;;;;;3.39;87.93457;943.3762;;;;
2023/01/06 08:01:41;;;;;;;4.6;3.5;;;;;;;3.63;87.06152;943.3133;;;;
2023/01/06 08:04:09;;;;;;;3.8;3.2;;;;;;;3.68;86.4541;943.358;;;;
2023/01/06 08:06:35;;;;;;;6.3;3.8;;;;;;;3.75;86.15625;943.3219;;;;
2023/01/06 08:09:01;;;;;;;4.3;2.8;;;;;;;3.92;85.41309;943.3666;;;;
2023/01/06 08:11:26;;;;;;;7.1;3.3;;;;;;;4.02;85.0957;943.3614;;;;
2023/01/06 08:13:52;;;;;;;5.3;4.2;;;;;;;4.49;83.42188;943.3602;;;;
2023/01/06 08:16:18;;;;;;;5;3.9;;;;;;;4.89;80.86523;943.2842;;;;
2023/01/06 08:18:46;;;;;;;5.6;3.8;;;;;;;4.87;80.43164;943.2722;;;;
2023/01/06 08:21:11;;;;;;;5.3;3.9;;;;;;;4.73;80.86816;943.3258;;;;
2023/01/06 08:23:38;;;;;;;8.5;5.8;;;;;;;4.89;80.9873;943.2856;;;;
2023/01/06 08:26:03;;;;;;;7;5.1;;;;;;;5.36;79.11328;943.2905;;;;
2023/01/06 08:28:33;;;;;;;6.6;4.7;;;;;;;5.65;77.66699;943.188;;;;
2023/01/06 08:31:00;;;;;;;7.2;4.9;;;;;;;6.1;75.4082;943.179;;;;
2023/01/06 08:33:26;;;;;;;7.7;4.8;;;;;;;6.62;73.26953;943.17;;;;
2023/01/06 08:35:54;;;;;;;6.7;5.5;;;;;;;7.01;71.61816;943.176;;;;
2023/01/06 08:38:20;;;;;;;8;6;;;;;;;7.25;70.17285;943.1312;;;;
2023/01/06 08:40:44;;;;;;;7.3;4.9;;;;;;;7.58;68.99023;943.1489;;;;
2023/01/06 08:43:14;;;;;;;5.4;4.3;;;;;;;8.12;67.11328;943.0796;;;;
2023/01/06 08:45:40;;;;;;;8.2;5.1;;;;;;;7.98;70.48535;943.0574;;;;
2023/01/06 08:48:04;;;;;;;7.9;5.8;;;;;;;7.92;67.91016;943.0359;;;;
2023/01/06 08:50:32;;;;;;;10.8;6.6;;;;;;;6.84;70.47852;943.0087;;;;
2023/01/06 08:52:57;;;;;;;10;6.1;;;;;;;6.32;72.23535;943.0442;;;;
2023/01/06 08:55:25;;;;;;;9;4.5;;;;;;;5.57;75.45117;943.0963;;;;
2023/01/06 08:57:50;;;;;;;7.2;4.5;;;;;;;5.55;76.14648;943.0773;;;;
2023/01/06 09:00:19;;;;;;;7.3;4.7;;;;;;;5.7;76.39746;943.0156;;;;
2023/01/06 09:02:50;;;;;;;8.6;5.4;;;;;;;5.6;76.81055;943.0469;;;;
2023/01/06 09:05:19;;;;;;;5.9;4.4;;;;;;;5.52;77.37012;943.1599;;;;
2023/01/06 09:07:44;;;;;;;6.9;4;;;;;;;5.4;77.73242;943.1758;;;;
2023/01/06 09:10:12;;;;;;;5.2;3.9;;;;;;;5.34;78.34082;943.135;;;;
2023/01/06 09:12:37;;;;;;;5.9;4;;;;;;;5.42;78.67188;943.1074;;;;
2023/01/06 09:15:04;;;;;;;7.3;4.1;;;;;;;5.48;77.99707;943.184;;;;
2023/01/06 09:17:29;;;;;;;5.1;3.4;;;;;;;5.58;78.31934;943.0784;;;;
2023/01/06 09:19:56;;;;;;;5.6;3.9;;;;;;;5.74;77.35449;943.116;;;;
2023/01/06 09:22:21;;;;;;;4.2;2.9;;;;;;;5.86;75.85254;943.1616;;;;
2023/01/06 09:24:49;;;;;;;7.4;4;;;;;;;6.07;75.10938;943.1021;;;;
2023/01/06 09:27:14;;;;;;;5.9;3.1;;;;;;;6.26;73.85254;943.063;;;;
2023/01/06 09:29:41;;;;;;;6.5;3.1;;;;;;;6.49;73;943.0842;;;;
2023/01/06 09:32:06;;;;;;;4.3;2.5;;;;;;;6.65;71.88574;943.0011;;;;
2023/01/06 09:34:34;;;;;;;3;1.6;;;;;;;6.79;70.33398;943.0363;;;;
2023/01/06 09:36:59;;;;;;;7.2;2.3;;;;;;;6.92;70.44629;943.0938;;;;
2023/01/06 09:39:28;;;;;;;2.3;1.4;;;;;;;7.18;72.14258;943.074;;;;
2023/01/06 09:41:53;;;;;;;1.3;1;;;;;;;7.37;71.91504;943.0942;;;;
2023/01/06 09:44:19;;;;;;;1;0.8;;;;;;;7.52;69.78516;943.0314;;;;
2023/01/06 09:46:44;;;;;;;1.4;1.1;;;;;;;7.6;69.50293;943.009;;;;
2023/01/06 09:49:13;;;;;;;3;2;;;;;;;7.68;68.79004;943.0244;;;;
2023/01/06 09:51:38;;;;;;;3;1.9;;;;;;;7.72;68.36621;943.0611;;;;
2023/01/06 09:54:04;;;;;;;5.3;2.2;;;;;;;7.68;67.1123;943.0623;;;;
2023/01/06 09:56:29;;;;;;;1.2;0.9;;;;;;;7.81;65.61133;943.0591;;;;
2023/01/06 09:58:54;;;;;;;1.1;1;;;;;;;7.91;65.5127;943.05;;;;
2023/01/06 10:01:21;;;;;;;0.9;0.8;;;;;;;8.02;64.98633;943.0984;;;;
2023/01/06 10:03:47;;;;;;;1;0.9;;;;;;;8.07;65.90137;943.0814;;;;
2023/01/06 10:06:14;;;;;;;1.8;1.5;;;;;;;8.09;66.9707;943.0352;;;;
2023/01/06 10:08:40;;;;;;;1.7;1;;;;;;;8.11;65.51074;943.012;;;;
2023/01/06 10:11:05;;;;;;;1.9;1;;;;;;;8.17;65.62109;942.9808;;;;
2023/01/06 10:13:30;;;;;;;2;1;;;;;;;8.28;65.37793;942.9611;;;;
2023/01/06 10:15:55;;;;;;;4.6;1.2;;;;;;;8.38;64.37012;942.9791;;;;
2023/01/06 10:18:20;;;;;;;2.1;0.9;;;;;;;8.46;63.47168;942.9677;;;;
2023/01/06 10:20:49;;;;;;;1.2;0.7;;;;;;;8.53;63.92773;943.003;;;;
2023/01/06 10:23:14;;;;;;;2.1;0.7;;;;;;;8.55;63.40625;942.9802;;;;
2023/01/06 10:25:40;;;;;;;3.7;1.4;;;;;;;8.56;62.98633;942.9462;;;;
2023/01/06 10:28:07;;;;;;;3.5;1.7;;;;;;;8.6;63.12988;942.9148;;;;
2023/01/06 10:30:36;;;;;;;2.2;1.4;;;;;;;8.65;62.0332;942.8861;;;;
2023/01/06 10:33:06;;;;;;;3.4;2.2;;;;;;;8.68;62.29883;942.9153;;;;
2023/01/06 10:35:39;;;;;;;3.5;2;;;;;;;8.71;60.81348;942.8318;;;;
2023/01/06 10:38:14;;;;;;;2.6;1.9;;;;;;;8.53;60.08496;942.7917;;;;
2023/01/06 10:40:41;;;;;;;2;1.5;;;;;;;8.62;60.22266;942.8234;;;;
2023/01/06 10:43:07;;;;;;;2.8;1.8;;;;;;;8.73;62.26172;942.8824;;;;
2023/01/06 10:45:32;;;;;;;3.8;1.7;;;;;;;8.71;64.02051;942.89;;;;
2023/01/06 10:47:57;;;;;;;1.7;1.4;;;;;;;8.73;64.05762;942.8078;;;;
2023/01/06 10:50:22;;;;;;;2.5;1.2;;;;;;;8.71;64.28223;942.8153;;;;
2023/01/06 10:52:51;;;;;;;2.5;1.4;;;;;;;8.75;62.76465;942.8958;;;;
2023/01/06 10:55:16;;;;;;;2.4;1.4;;;;;;;8.86;60.9502;942.8929;;;;
2023/01/06 10:57:42;;;;;;;1.9;1.4;;;;;;;8.93;60.61816;942.8875;;;;
2023/01/06 11:00:15;;;;;;;1.6;1.3;;;;;;;8.99;61.28711;942.8697;;;;
2023/01/06 11:02:44;;;;;;;1.4;0.8;;;;;;;9.04;61.06543;942.8512;;;;
2023/01/06 11:05:10;;;;;;;0.8;0.5;;;;;;;9.08;59.99121;942.7949;;;;
2023/01/06 11:07:35;;;;;;;0.8;0.7;;;;;;;9.14;59.69238;942.9164;;;;
2023/01/06 11:10:00;;;;;;;2;0.8;;;;;;;9.15;59.44434;942.9118;;;;
2023/01/06 11:12:25;;;;;;;1.5;0.7;;;;;;;9.2;59.13184;942.8397;;;;
2023/01/06 11:14:53;;;;;;;2.9;0.8;;;;;;;9.34;59.06934;942.8358;;;;
2023/01/06 11:17:20;;;;;;;1.1;0.5;;;;;;;9.41;58.06738;942.8242;;;;
2023/01/06 11:19:45;;;;;;;1.6;0.7;;;;;;;9.5;58.29492;942.7536;;;;
2023/01/06 11:22:11;;;;;;;4.7;1.2;;;;;;;9.54;57.59473;942.8436;;;;
2023/01/06 11:24:39;;;;;;;1.2;1;;;;;;;9.62;56.94434;942.832;;;;
2023/01/06 11:27:04;;;;;;;2.4;1.2;;;;;;;9.63;57.38965;942.7733;;;;
2023/01/06 11:29:32;;;;;;;4.8;1.7;;;;;;;9.85;60.64648;942.7406;;;;
2023/01/06 11:31:57;;;;;;;0.6;0.6;;;;;;;9.93;55.68555;942.6085;;;;
2023/01/06 11:34:23;;;;;;;1;0.6;;;;;;;9.91;55.43164;942.5412;;;;
2023/01/06 11:36:50;;;;;;;1.2;0.6;;;;;;;9.92;57.90723;942.5184;;;;
2023/01/06 11:39:17;;;;;;;1.4;0.8;;;;;;;10.05;55.30078;942.5067;;;;
2023/01/06 11:41:42;;;;;;;1.2;0.8;;;;;;;10.12;55.20898;942.4905;;;;
2023/01/06 11:44:10;;;;;;;0.8;0.7;;;;;;;10.17;55.14648;942.4268;;;;
2023/01/06 11:46:35;;;;;;;0.8;0.8;;;;;;;10.18;55.68262;942.4286;;;;
2023/01/06 11:49:00;;;;;;;1.1;0.7;;;;;;;10.03;56.87305;942.4705;;;;
2023/01/06 11:51:25;;;;;;;0.5;0.5;;;;;;;10.07;57.49414;942.4363;;;;
2023/01/06 11:53:51;;;;;;;0.8;0.6;;;;;;;10.07;57.51758;942.3837;;;;
2023/01/06 11:56:16;;;;;;;0.7;0.6;;;;;;;10.2;56.42773;942.316;;;;
2023/01/06 11:58:41;;;;;;;0.4;0.4;;;;;;;10.27;56.37988;942.25;;;;
2023/01/06 12:01:10;;;;;;;0.5;0.5;;;;;;;10.32;55.26758;942.2246;;;;
2023/01/06 12:03:40;;;;;;;0.6;0.6;;;;;;;10.29;56.27832;942.2225;;;;
2023/01/06 12:06:01;;;;;;;2.4;0.6;;;;;;;10.27;56.76855;942.2852;;;;
2023/01/06 12:08:26;;;;;;;0.6;0.5;;;;;;;10.31;56.28223;942.3033;;;;
2023/01/06 12:10:51;;;;;;;0.7;0.5;;;;;;;10.25;56.1377;942.2967;;;;
2023/01/06 12:13:18;;;;;;;0.3;0.3;;;;;;;10.29;57.23828;942.3141;;;;
2023/01/06 12:15:43;;;;;;;0.7;0.6;;;;;;;10.33;56.03418;942.3435;;;;
2023/01/06 12:18:09;;;;;;;0.5;0.5;;;;;;;10.36;57.38379;942.2842;;;;
2023/01/06 12:20:40;;;;;;;0.5;0.5;;;;;;;10.47;58.71094;942.33;;;;
2023/01/06 12:23:03;;;;;;;0.5;0.5;;;;;;;10.59;59.33398;942.2906;;;;
2023/01/06 12:25:32;;;;;;;0.6;0.6;;;;;;;10.65;58.78223;942.3555;;;;
2023/01/06 12:27:57;;;;;;;0.8;0.4;;;;;;;10.69;59.3125;942.3689;;;;
2023/01/06 12:30:22;;;;;;;1.4;0.7;;;;;;;10.74;59.28516;942.3098;;;;
2023/01/06 12:32:48;;;;;;;0.4;0.4;;;;;;;10.8;59.86523;942.3444;;;;
2023/01/06 12:35:12;;;;;;;0.5;0.5;;;;;;;10.9;60.41504;942.3094;;;;
2023/01/06 12:37:42;;;;;;;1.1;0.4;;;;;;;10.99;60.2002;942.3449;;;;
2023/01/06 12:40:12;;;;;;;0.5;0.5;;;;;;;11.02;60.60449;942.3513;;;;
2023/01/06 12:42:37;;;;;;;0.9;0.5;;;;;;;10.89;61.18066;942.3372;;;;
2023/01/06 12:45:02;;;;;;;0.6;0.4;;;;;;;11.08;61.38867;942.3122;;;;
2023/01/06 12:47:27;;;;;;;0.7;0.7;;;;;;;11.21;61.23535;942.29;;;;
2023/01/06 12:49:55;;;;;;;0.6;0.6;;;;;;;11.31;61.09082;942.3123;;;;
2023/01/06 12:52:20;;;;;;;0.9;0.6;;;;;;;11.43;62.28516;942.2609;;;;
2023/01/06 12:54:45;;;;;;;0.7;0.6;;;;;;;11.64;62.85449;942.3514;;;;
2023/01/06 12:57:16;;;;;;;0.9;0.6;;;;;;;11.69;60.28711;942.2938;;;;
2023/01/06 12:59:44;;;;;;;0.5;0.5;;;;;;;11.69;60.87988;942.32;;;;
2023/01/06 13:02:11;;;;;;;0.4;0.4;;;;;;;11.76;61.38281;942.2714;;;;
2023/01/06 13:04:37;;;;;;;0.7;0.7;;;;;;;11.93;61.10938;942.2379;;;;
2023/01/06 13:07:06;;;;;;;0.9;0.5;;;;;;;12.03;60.78027;942.2648;;;;
2023/01/06 13:09:34;;;;;;;1.3;0.4;;;;;;;12.17;60.81152;942.184;;;;
2023/01/06 13:12:01;;;;;;;0.4;0.4;;;;;;;12.34;60.73145;942.1842;;;;
2023/01/06 13:14:27;;;;;;;0.5;0.5;;;;;;;12.43;59.9873;942.1094;;;;
2023/01/06 13:16:53;;;;;;;0.8;0.4;;;;;;;12.47;60.29102;942.0898;;;;
2023/01/06 13:19:19;;;;;;;0.5;0.5;;;;;;;12.39;60.32617;942.1031;;;;
2023/01/06 13:21:44;;;;;;;0.5;0.4;;;;;;;12.35;61.51172;942.0869;;;;
2023/01/06 13:24:10;;;;;;;0.8;0.7;;;;;;;12.43;61.69727;942.0591;;;;
2023/01/06 13:26:35;;;;;;;0.5;0.5;;;;;;;12.23;63.13379;942.0283;;;;
2023/01/06 13:29:00;;;;;;;0.5;0.4;;;;;;;12.16;64.27051;942.0625;;;;
2023/01/06 13:31:29;;;;;;;0.5;0.5;;;;;;;11.91;64.93164;942.0549;;;;
2023/01/06 13:33:54;;;;;;;0.4;0.4;;;;;;;12.12;63.85059;942.0261;;;;
2023/01/06 13:36:19;;;;;;;0.4;0.4;;;;;;;12.67;61.59277;942.0269;;;;
2023/01/06 13:38:48;;;;;;;0.4;0.4;;;;;;;14.81;55.30078;942.0045;;;;
2023/01/06 13:41:17;;;;;;;0.5;0.5;;;;;;;16.92;48.87109;941.965;;;;
2023/01/06 13:43:43;;;;;;;0.6;0.5;;;;;;;18.05;46.64941;942.0342;;;;
2023/01/06 13:46:08;;;;;;;0.5;0.5;;;;;;;18.85;43.58105;941.9309;;;;
2023/01/06 13:48:33;;;;;;;0.5;0.5;;;;;;;18.82;43.86914;941.8758;;;;
2023/01/06 13:51:01;;;;;;;1.2;0.6;;;;;;;19.08;42.97559;941.9233;;;;
2023/01/06 13:53:27;;;;;;;0.7;0.5;;;;;;;18.92;43.68066;941.9228;;;;
2023/01/06 13:55:52;;;;;;;0.6;0.6;;;;;;;19.29;42.25;941.9222;;;;
2023/01/06 13:58:18;;;;;;;1.2;0.6;;;;;;;19.25;42.22266;941.9537;;;;
2023/01/06 14:00:44;;;;;;;0.7;0.6;;;;;;;19.14;42.56152;941.9377;;;;
2023/01/06 14:03:11;;;;;;;1.1;0.8;;;;;;;19.56;41.8916;942.0317;;;;
2023/01/06 14:05:36;;;;;;;1.3;0.6;;;;;;;19.42;40.89844;941.9517;;;;
2023/01/06 14:08:02;;;;;;;2.8;0.8;;;;;;;17.33;45.34473;942.0075;;;;
2023/01/06 14:10:27;;;;;;;0.8;0.8;;;;;;;16.41;47.58789;941.9703;;;;
2023/01/06 14:12:52;;;;;;;0.5;0.5;;;;;;;15.64;49.81348;941.9249;;;;
2023/01/06 14:15:17;;;;;;;0.6;0.6;;;;;;;14.77;52.18164;941.9156;;;;
2023/01/06 14:17:48;;;;;;;3.1;1.3;;;;;;;13.97;52.75391;941.9272;;;;
2023/01/06 14:20:17;;;;;;;2;1.2;;;;;;;12.75;51.84863;941.8669;;;;
2023/01/06 14:22:43;;;;;;;3.2;1.6;;;;;;;12.12;53.49316;941.9592;;;;
2023/01/06 14:25:14;;;;;;;7;1.8;;;;;;;11.71;54.83984;941.9702;;;;
2023/01/06 14:27:47;;;;;;;5.1;2.1;;;;;;;11.01;57.01367;941.9644;;;;
2023/01/06 14:30:16;;;;;;;4.8;2.1;;;;;;;10.79;57.84082;941.9913;;;;
2023/01/06 14:32:41;;;;;;;5.3;2.1;;;;;;;10.62;58.78809;942.0389;;;;
2023/01/06 14:35:16;;;;;;;3.5;1.9;;;;;;;10.27;60.19141;942.0042;;;;
2023/01/06 14:37:41;;;;;;;4.8;1.8;;;;;;;10.11;60.8418;942.0128;;;;
2023/01/06 14:40:06;;;;;;;4.4;2.1;;;;;;;9.97;61.47266;942.0522;;;;
2023/01/06 14:42:33;;;;;;;4;1.6;;;;;;;9.97;61.45996;942.0236;;;;
2023/01/06 14:44:56;;;;;;;6.1;2.2;;;;;;;9.87;61.87988;942.0966;;;;
2023/01/06 14:47:21;;;;;;;5.1;2;;;;;;;9.86;62.25488;942.137;;;;
2023/01/06 14:49:46;;;;;;;8.9;2.7;;;;;;;9.68;62.82129;942.1478;;;;
2023/01/06 14:52:12;;;;;;;6.2;2.4;;;;;;;9.46;64.09863;942.1686;;;;
2023/01/06 14:54:37;;;;;;;6.1;3.6;;;;;;;9.25;66.19629;942.2293;;;;
2023/01/06 14:57:06;;;;;;;9.8;4.4;;;;;;;9.08;67.58105;942.2573;;;;
2023/01/06 14:59:31;;;;;;;9.5;4.7;;;;;;;8.91;68.19238;942.3161;;;;
2023/01/06 15:01:56;;;;;;;9.9;4.6;;;;;;;8.97;67.34863;942.2443;;;;
2023/01/06 15:04:24;;;;;;;6.7;3.6;;;;;;;8.71;66.84082;942.3303;;;;
2023/01/06 15:06:49;;;;;;;7.1;3.8;;;;;;;8.48;67.7373;942.3707;;;;
2023/01/06 15:09:15;;;;;;;6.1;3.4;;;;;;;8.32;68.51855;942.3583;;;;
2023/01/06 15:11:40;;;;;;;6.6;3.4;;;;;;;8.21;68.95508;942.3532;;;;
2023/01/06 15:14:06;;;;;;;11.1;6.4;;;;;;;8.25;72.85645;942.3161;;;;